sensor_id;sensor_type;location;lat;lon;timestamp;P1;durP1;ratioP1;P2;durP2;ratioP2
47161;SDS011;32921;53.256;8.198;2023-05-19T00:01:22;27.85;;;10.82;;
47161;SDS011;32921;53.256;8.198;2023-05-19T00:03:49;35.65;;;11.90;;
47161;SDS011;32921;53.256;8.198;2023-05-19T00:06:20;31.30;;;11.52;;
47161;SDS011;32921;53.256;8.198;2023-05-19T00:08:48;30.75;;;10.43;;
47161;SDS011;32921;53.256;8.198;2023-05-19T00:11:19;27.95;;;10.55;;
47161;SDS011;32921;53.256;8.198;2023-05-19T00:13:46;34.13;;;11.27;;
47161;SDS011;32921;53.256;8.198;2023-05-19T00:16:13;30.55;;;10.98;;
47161;SDS011;32921;53.256;8.198;2023-05-19T00:18:39;30.77;;;12.25;;
47161;SDS011;32921;53.256;8.198;2023-05-19T00:21:05;27.70;;;10.60;;
47161;SDS011;32921;53.256;8.198;2023-05-19T00:23:31;30.63;;;11.07;;
47161;SDS011;32921;53.256;8.198;2023-05-19T00:25:57;34.78;;;10.20;;
47161;SDS011;32921;53.256;8.198;2023-05-19T00:28:22;29.52;;;10.30;;
47161;SDS011;32921;53.256;8.198;2023-05-19T00:30:49;33.38;;;10.98;;
47161;SDS011;32921;53.256;8.198;2023-05-19T00:33:15;30.85;;;10.45;;
47161;SDS011;32921;53.256;8.198;2023-05-19T00:35:40;24.55;;;10.35;;
47161;SDS011;32921;53.256;8.198;2023-05-19T00:38:06;27.45;;;10.27;;
47161;SDS011;32921;53.256;8.198;2023-05-19T00:40:32;25.40;;;10.48;;
47161;SDS011;32921;53.256;8.198;2023-05-19T00:43:00;24.33;;;9.50;;
47161;SDS011;32921;53.256;8.198;2023-05-19T00:45:26;27.08;;;10.60;;
47161;SDS011;32921;53.256;8.198;2023-05-19T00:47:52;28.92;;;10.88;;
47161;SDS011;32921;53.256;8.198;2023-05-19T00:50:18;35.72;;;11.38;;
47161;SDS011;32921;53.256;8.198;2023-05-19T00:52:44;31.05;;;12.13;;
47161;SDS011;32921;53.256;8.198;2023-05-19T00:55:09;29.50;;;12.55;;
47161;SDS011;32921;53.256;8.198;2023-05-19T00:57:36;29.33;;;12.02;;
47161;SDS011;32921;53.256;8.198;2023-05-19T01:02:59;30.13;;;13.73;;
47161;SDS011;32921;53.256;8.198;2023-05-19T01:05:25;36.80;;;14.13;;
47161;SDS011;32921;53.256;8.198;2023-05-19T01:07:50;39.00;;;14.88;;
47161;SDS011;32921;53.256;8.198;2023-05-19T01:10:18;35.22;;;12.98;;
47161;SDS011;32921;53.256;8.198;2023-05-19T01:12:44;43.20;;;14.60;;
47161;SDS011;32921;53.256;8.198;2023-05-19T01:15:10;38.20;;;15.20;;
47161;SDS011;32921;53.256;8.198;2023-05-19T01:20:40;45.72;;;19.08;;
47161;SDS011;32921;53.256;8.198;2023-05-19T01:32:03;51.40;;;20.42;;
47161;SDS011;32921;53.256;8.198;2023-05-19T01:34:30;50.50;;;19.75;;
47161;SDS011;32921;53.256;8.198;2023-05-19T01:36:58;51.72;;;19.60;;
47161;SDS011;32921;53.256;8.198;2023-05-19T01:39:25;55.13;;;21.00;;
47161;SDS011;32921;53.256;8.198;2023-05-19T01:41:52;51.72;;;20.15;;
47161;SDS011;32921;53.256;8.198;2023-05-19T01:44:18;50.92;;;20.02;;
47161;SDS011;32921;53.256;8.198;2023-05-19T01:46:46;51.55;;;18.70;;
47161;SDS011;32921;53.256;8.198;2023-05-19T01:49:12;52.80;;;19.67;;
47161;SDS011;32921;53.256;8.198;2023-05-19T01:51:38;53.25;;;18.65;;
47161;SDS011;32921;53.256;8.198;2023-05-19T01:54:04;46.83;;;19.50;;
47161;SDS011;32921;53.256;8.198;2023-05-19T01:56:55;51.60;;;19.58;;
47161;SDS011;32921;53.256;8.198;2023-05-19T01:59:22;43.53;;;18.65;;
47161;SDS011;32921;53.256;8.198;2023-05-19T02:02:05;43.65;;;19.10;;
47161;SDS011;32921;53.256;8.198;2023-05-19T02:04:48;43.60;;;19.13;;
47161;SDS011;32921;53.256;8.198;2023-05-19T02:07:24;38.42;;;17.65;;
47161;SDS011;32921;53.256;8.198;2023-05-19T02:10:05;42.85;;;17.27;;
47161;SDS011;32921;53.256;8.198;2023-05-19T02:12:46;47.65;;;18.50;;
47161;SDS011;32921;53.256;8.198;2023-05-19T02:15:20;41.25;;;17.55;;
47161;SDS011;32921;53.256;8.198;2023-05-19T02:17:48;41.42;;;17.73;;
47161;SDS011;32921;53.256;8.198;2023-05-19T02:20:18;42.03;;;18.13;;
47161;SDS011;32921;53.256;8.198;2023-05-19T02:22:44;41.95;;;18.17;;
47161;SDS011;32921;53.256;8.198;2023-05-19T02:25:09;44.05;;;18.73;;
47161;SDS011;32921;53.256;8.198;2023-05-19T02:27:36;45.00;;;18.38;;
47161;SDS011;32921;53.256;8.198;2023-05-19T02:30:03;38.70;;;17.52;;
47161;SDS011;32921;53.256;8.198;2023-05-19T02:32:30;44.88;;;17.30;;
47161;SDS011;32921;53.256;8.198;2023-05-19T02:34:56;42.15;;;17.08;;
47161;SDS011;32921;53.256;8.198;2023-05-19T02:37:21;47.35;;;17.65;;
47161;SDS011;32921;53.256;8.198;2023-05-19T02:39:52;36.70;;;16.60;;
47161;SDS011;32921;53.256;8.198;2023-05-19T02:42:18;38.28;;;16.60;;
47161;SDS011;32921;53.256;8.198;2023-05-19T02:44:44;37.63;;;16.52;;
47161;SDS011;32921;53.256;8.198;2023-05-19T02:47:10;36.75;;;17.15;;
47161;SDS011;32921;53.256;8.198;2023-05-19T02:49:35;28.88;;;14.38;;
47161;SDS011;32921;53.256;8.198;2023-05-19T02:52:02;37.83;;;15.48;;
47161;SDS011;32921;53.256;8.198;2023-05-19T02:54:31;32.92;;;16.33;;
47161;SDS011;32921;53.256;8.198;2023-05-19T02:56:57;40.78;;;15.88;;
47161;SDS011;32921;53.256;8.198;2023-05-19T02:59:23;36.08;;;15.27;;
47161;SDS011;32921;53.256;8.198;2023-05-19T03:01:50;31.13;;;15.63;;
47161;SDS011;32921;53.256;8.198;2023-05-19T03:04:17;43.15;;;15.85;;
47161;SDS011;32921;53.256;8.198;2023-05-19T03:06:44;31.70;;;14.68;;
47161;SDS011;32921;53.256;8.198;2023-05-19T03:09:10;28.25;;;14.70;;
47161;SDS011;32921;53.256;8.198;2023-05-19T03:11:37;36.38;;;14.15;;
47161;SDS011;32921;53.256;8.198;2023-05-19T03:14:03;32.30;;;14.98;;
47161;SDS011;32921;53.256;8.198;2023-05-19T03:16:28;38.33;;;15.45;;
47161;SDS011;32921;53.256;8.198;2023-05-19T03:18:54;32.22;;;15.40;;
47161;SDS011;32921;53.256;8.198;2023-05-19T03:21:20;34.22;;;13.88;;
47161;SDS011;32921;53.256;8.198;2023-05-19T03:23:45;32.78;;;15.98;;
47161;SDS011;32921;53.256;8.198;2023-05-19T03:26:11;34.30;;;14.48;;
47161;SDS011;32921;53.256;8.198;2023-05-19T03:28:36;31.77;;;13.93;;
47161;SDS011;32921;53.256;8.198;2023-05-19T03:31:02;32.08;;;14.82;;
47161;SDS011;32921;53.256;8.198;2023-05-19T03:33:28;29.33;;;14.48;;
47161;SDS011;32921;53.256;8.198;2023-05-19T03:35:54;28.85;;;14.43;;
47161;SDS011;32921;53.256;8.198;2023-05-19T03:38:20;29.92;;;14.98;;
47161;SDS011;32921;53.256;8.198;2023-05-19T03:40:46;34.38;;;17.00;;
47161;SDS011;32921;53.256;8.198;2023-05-19T03:43:11;35.72;;;15.27;;
47161;SDS011;32921;53.256;8.198;2023-05-19T03:45:37;29.42;;;14.73;;
47161;SDS011;32921;53.256;8.198;2023-05-19T03:48:03;32.83;;;16.02;;
47161;SDS011;32921;53.256;8.198;2023-05-19T03:50:29;35.13;;;16.25;;
47161;SDS011;32921;53.256;8.198;2023-05-19T03:52:55;32.85;;;16.23;;
47161;SDS011;32921;53.256;8.198;2023-05-19T03:55:21;32.83;;;15.43;;
47161;SDS011;32921;53.256;8.198;2023-05-19T03:57:47;33.20;;;15.77;;
47161;SDS011;32921;53.256;8.198;2023-05-19T04:00:12;37.95;;;16.45;;
47161;SDS011;32921;53.256;8.198;2023-05-19T04:02:39;31.50;;;15.13;;
47161;SDS011;32921;53.256;8.198;2023-05-19T04:05:05;35.00;;;15.15;;
47161;SDS011;32921;53.256;8.198;2023-05-19T04:07:32;29.65;;;15.45;;
47161;SDS011;32921;53.256;8.198;2023-05-19T04:09:57;33.53;;;15.57;;
47161;SDS011;32921;53.256;8.198;2023-05-19T04:12:23;32.30;;;16.23;;
47161;SDS011;32921;53.256;8.198;2023-05-19T04:14:49;36.28;;;15.65;;
47161;SDS011;32921;53.256;8.198;2023-05-19T04:17:14;34.78;;;15.25;;
47161;SDS011;32921;53.256;8.198;2023-05-19T04:19:40;35.40;;;15.77;;
47161;SDS011;32921;53.256;8.198;2023-05-19T04:22:05;26.42;;;13.82;;
47161;SDS011;32921;53.256;8.198;2023-05-19T04:24:31;29.77;;;14.77;;
47161;SDS011;32921;53.256;8.198;2023-05-19T04:26:57;34.28;;;15.30;;
47161;SDS011;32921;53.256;8.198;2023-05-19T04:29:27;36.20;;;15.55;;
47161;SDS011;32921;53.256;8.198;2023-05-19T04:31:53;30.63;;;14.82;;
47161;SDS011;32921;53.256;8.198;2023-05-19T04:34:19;31.58;;;16.05;;
47161;SDS011;32921;53.256;8.198;2023-05-19T04:36:45;30.15;;;15.48;;
47161;SDS011;32921;53.256;8.198;2023-05-19T04:39:12;27.73;;;13.88;;
47161;SDS011;32921;53.256;8.198;2023-05-19T04:41:38;30.15;;;14.77;;
47161;SDS011;32921;53.256;8.198;2023-05-19T04:44:08;28.20;;;14.30;;
47161;SDS011;32921;53.256;8.198;2023-05-19T04:46:34;28.75;;;14.20;;
47161;SDS011;32921;53.256;8.198;2023-05-19T04:49:00;28.33;;;14.63;;
47161;SDS011;32921;53.256;8.198;2023-05-19T04:51:26;31.42;;;15.48;;
47161;SDS011;32921;53.256;8.198;2023-05-19T04:53:55;28.48;;;14.05;;
47161;SDS011;32921;53.256;8.198;2023-05-19T04:56:21;32.13;;;14.32;;
47161;SDS011;32921;53.256;8.198;2023-05-19T04:58:47;27.33;;;14.00;;
47161;SDS011;32921;53.256;8.198;2023-05-19T05:01:13;29.85;;;14.55;;
47161;SDS011;32921;53.256;8.198;2023-05-19T05:03:40;29.77;;;14.68;;
47161;SDS011;32921;53.256;8.198;2023-05-19T05:06:06;31.13;;;14.90;;
47161;SDS011;32921;53.256;8.198;2023-05-19T05:08:32;25.52;;;13.55;;
47161;SDS011;32921;53.256;8.198;2023-05-19T05:10:58;28.35;;;13.80;;
47161;SDS011;32921;53.256;8.198;2023-05-19T05:13:24;25.52;;;13.63;;
47161;SDS011;32921;53.256;8.198;2023-05-19T05:15:50;28.48;;;12.63;;
47161;SDS011;32921;53.256;8.198;2023-05-19T05:18:18;20.85;;;12.10;;
47161;SDS011;32921;53.256;8.198;2023-05-19T05:20:44;24.35;;;12.13;;
47161;SDS011;32921;53.256;8.198;2023-05-19T05:23:10;19.48;;;9.98;;
47161;SDS011;32921;53.256;8.198;2023-05-19T05:25:40;17.13;;;9.68;;
47161;SDS011;32921;53.256;8.198;2023-05-19T05:28:06;15.38;;;8.20;;
47161;SDS011;32921;53.256;8.198;2023-05-19T05:30:32;20.20;;;8.85;;
47161;SDS011;32921;53.256;8.198;2023-05-19T05:32:58;13.90;;;6.53;;
47161;SDS011;32921;53.256;8.198;2023-05-19T05:35:24;13.75;;;6.75;;
47161;SDS011;32921;53.256;8.198;2023-05-19T05:37:50;12.90;;;6.20;;
47161;SDS011;32921;53.256;8.198;2023-05-19T05:40:16;13.27;;;6.18;;
47161;SDS011;32921;53.256;8.198;2023-05-19T05:42:42;13.20;;;5.70;;
47161;SDS011;32921;53.256;8.198;2023-05-19T05:45:07;13.95;;;5.65;;
47161;SDS011;32921;53.256;8.198;2023-05-19T05:47:33;12.82;;;6.38;;
47161;SDS011;32921;53.256;8.198;2023-05-19T05:50:02;9.80;;;5.75;;
47161;SDS011;32921;53.256;8.198;2023-05-19T05:52:29;14.45;;;6.35;;
47161;SDS011;32921;53.256;8.198;2023-05-19T05:54:55;15.93;;;6.63;;
47161;SDS011;32921;53.256;8.198;2023-05-19T05:57:21;11.48;;;5.38;;
47161;SDS011;32921;53.256;8.198;2023-05-19T05:59:46;13.10;;;6.72;;
47161;SDS011;32921;53.256;8.198;2023-05-19T06:02:12;16.67;;;6.03;;
47161;SDS011;32921;53.256;8.198;2023-05-19T06:04:38;10.30;;;5.60;;
47161;SDS011;32921;53.256;8.198;2023-05-19T06:07:04;10.65;;;4.72;;
47161;SDS011;32921;53.256;8.198;2023-05-19T06:09:30;15.40;;;5.03;;
47161;SDS011;32921;53.256;8.198;2023-05-19T06:11:56;12.85;;;4.55;;
47161;SDS011;32921;53.256;8.198;2023-05-19T06:14:24;12.52;;;4.38;;
47161;SDS011;32921;53.256;8.198;2023-05-19T06:16:49;10.32;;;4.70;;
47161;SDS011;32921;53.256;8.198;2023-05-19T06:19:15;9.95;;;4.20;;
47161;SDS011;32921;53.256;8.198;2023-05-19T06:21:41;13.30;;;4.20;;
47161;SDS011;32921;53.256;8.198;2023-05-19T06:24:07;8.82;;;4.18;;
47161;SDS011;32921;53.256;8.198;2023-05-19T06:26:33;10.98;;;3.78;;
47161;SDS011;32921;53.256;8.198;2023-05-19T06:28:58;10.65;;;3.75;;
47161;SDS011;32921;53.256;8.198;2023-05-19T06:31:24;10.25;;;3.97;;
47161;SDS011;32921;53.256;8.198;2023-05-19T06:33:51;11.80;;;3.67;;
47161;SDS011;32921;53.256;8.198;2023-05-19T06:36:17;10.43;;;4.30;;
47161;SDS011;32921;53.256;8.198;2023-05-19T06:38:43;10.73;;;3.25;;
47161;SDS011;32921;53.256;8.198;2023-05-19T06:41:09;8.23;;;2.95;;
47161;SDS011;32921;53.256;8.198;2023-05-19T06:43:34;13.90;;;3.80;;
47161;SDS011;32921;53.256;8.198;2023-05-19T06:46:00;17.05;;;3.70;;
47161;SDS011;32921;53.256;8.198;2023-05-19T06:48:25;11.05;;;3.38;;
47161;SDS011;32921;53.256;8.198;2023-05-19T06:50:51;7.53;;;3.20;;
47161;SDS011;32921;53.256;8.198;2023-05-19T06:53:17;12.00;;;3.80;;
47161;SDS011;32921;53.256;8.198;2023-05-19T06:55:43;11.32;;;3.35;;
47161;SDS011;32921;53.256;8.198;2023-05-19T06:58:10;9.38;;;3.42;;
47161;SDS011;32921;53.256;8.198;2023-05-19T07:00:35;13.98;;;3.88;;
47161;SDS011;32921;53.256;8.198;2023-05-19T07:03:01;11.35;;;3.92;;
47161;SDS011;32921;53.256;8.198;2023-05-19T07:05:27;10.88;;;3.83;;
47161;SDS011;32921;53.256;8.198;2023-05-19T07:07:52;10.07;;;3.70;;
47161;SDS011;32921;53.256;8.198;2023-05-19T07:10:18;11.50;;;3.63;;
47161;SDS011;32921;53.256;8.198;2023-05-19T07:12:45;10.10;;;3.58;;
47161;SDS011;32921;53.256;8.198;2023-05-19T07:15:11;8.32;;;3.28;;
47161;SDS011;32921;53.256;8.198;2023-05-19T07:17:36;10.57;;;3.60;;
47161;SDS011;32921;53.256;8.198;2023-05-19T07:20:02;10.77;;;4.45;;
47161;SDS011;32921;53.256;8.198;2023-05-19T07:22:30;10.95;;;3.55;;
47161;SDS011;32921;53.256;8.198;2023-05-19T07:24:59;13.73;;;3.83;;
47161;SDS011;32921;53.256;8.198;2023-05-19T07:27:24;12.68;;;3.28;;
47161;SDS011;32921;53.256;8.198;2023-05-19T07:29:50;11.80;;;3.30;;
47161;SDS011;32921;53.256;8.198;2023-05-19T07:32:16;9.52;;;3.30;;
47161;SDS011;32921;53.256;8.198;2023-05-19T07:34:41;9.02;;;3.08;;
47161;SDS011;32921;53.256;8.198;2023-05-19T07:37:07;8.65;;;3.47;;
47161;SDS011;32921;53.256;8.198;2023-05-19T07:39:33;7.50;;;3.72;;
47161;SDS011;32921;53.256;8.198;2023-05-19T07:41:59;9.07;;;3.40;;
47161;SDS011;32921;53.256;8.198;2023-05-19T07:44:25;11.75;;;3.45;;
47161;SDS011;32921;53.256;8.198;2023-05-19T07:46:51;8.38;;;2.90;;
47161;SDS011;32921;53.256;8.198;2023-05-19T07:49:17;14.23;;;4.70;;
47161;SDS011;32921;53.256;8.198;2023-05-19T07:51:43;12.20;;;3.60;;
47161;SDS011;32921;53.256;8.198;2023-05-19T07:54:08;10.75;;;3.35;;
47161;SDS011;32921;53.256;8.198;2023-05-19T07:56:34;10.43;;;4.03;;
47161;SDS011;32921;53.256;8.198;2023-05-19T07:59:00;15.68;;;3.92;;
47161;SDS011;32921;53.256;8.198;2023-05-19T08:01:25;11.85;;;3.67;;
47161;SDS011;32921;53.256;8.198;2023-05-19T08:03:52;11.32;;;3.38;;
47161;SDS011;32921;53.256;8.198;2023-05-19T08:06:17;10.15;;;3.22;;
47161;SDS011;32921;53.256;8.198;2023-05-19T08:08:43;7.90;;;3.33;;
47161;SDS011;32921;53.256;8.198;2023-05-19T08:11:08;12.70;;;3.72;;
47161;SDS011;32921;53.256;8.198;2023-05-19T08:13:34;10.77;;;3.33;;
47161;SDS011;32921;53.256;8.198;2023-05-19T08:16:00;9.20;;;3.30;;
47161;SDS011;32921;53.256;8.198;2023-05-19T08:18:25;11.73;;;3.33;;
47161;SDS011;32921;53.256;8.198;2023-05-19T08:20:51;11.18;;;3.72;;
47161;SDS011;32921;53.256;8.198;2023-05-19T08:23:17;8.25;;;2.88;;
47161;SDS011;32921;53.256;8.198;2023-05-19T08:25:42;11.95;;;3.30;;
47161;SDS011;32921;53.256;8.198;2023-05-19T08:28:09;11.18;;;3.45;;
47161;SDS011;32921;53.256;8.198;2023-05-19T08:30:34;11.13;;;3.28;;
47161;SDS011;32921;53.256;8.198;2023-05-19T08:33:00;12.73;;;3.70;;
47161;SDS011;32921;53.256;8.198;2023-05-19T08:35:26;12.90;;;3.47;;
47161;SDS011;32921;53.256;8.198;2023-05-19T08:37:52;9.95;;;3.10;;
47161;SDS011;32921;53.256;8.198;2023-05-19T08:40:17;11.73;;;3.72;;
47161;SDS011;32921;53.256;8.198;2023-05-19T08:42:44;11.10;;;2.85;;
47161;SDS011;32921;53.256;8.198;2023-05-19T08:45:10;11.23;;;3.00;;
47161;SDS011;32921;53.256;8.198;2023-05-19T08:47:36;6.93;;;3.17;;
47161;SDS011;32921;53.256;8.198;2023-05-19T08:50:05;8.77;;;2.78;;
47161;SDS011;32921;53.256;8.198;2023-05-19T08:52:40;8.80;;;2.92;;
47161;SDS011;32921;53.256;8.198;2023-05-19T08:57:57;10.13;;;3.50;;
47161;SDS011;32921;53.256;8.198;2023-05-19T09:00:24;8.65;;;2.60;;
47161;SDS011;32921;53.256;8.198;2023-05-19T09:02:50;7.45;;;2.60;;
47161;SDS011;32921;53.256;8.198;2023-05-19T09:05:17;10.70;;;2.63;;
47161;SDS011;32921;53.256;8.198;2023-05-19T09:07:43;9.70;;;3.08;;
47161;SDS011;32921;53.256;8.198;2023-05-19T09:10:10;11.93;;;3.30;;
47161;SDS011;32921;53.256;8.198;2023-05-19T09:12:39;8.20;;;3.35;;
47161;SDS011;32921;53.256;8.198;2023-05-19T09:15:06;8.45;;;3.20;;
47161;SDS011;32921;53.256;8.198;2023-05-19T09:17:33;7.53;;;2.58;;
47161;SDS011;32921;53.256;8.198;2023-05-19T09:20:00;8.57;;;2.95;;
47161;SDS011;32921;53.256;8.198;2023-05-19T09:22:28;10.95;;;3.28;;
47161;SDS011;32921;53.256;8.198;2023-05-19T09:24:54;14.65;;;3.17;;
47161;SDS011;32921;53.256;8.198;2023-05-19T09:27:20;9.38;;;3.40;;
47161;SDS011;32921;53.256;8.198;2023-05-19T09:29:47;11.32;;;3.35;;
47161;SDS011;32921;53.256;8.198;2023-05-19T09:32:15;11.35;;;2.97;;
47161;SDS011;32921;53.256;8.198;2023-05-19T09:34:49;10.00;;;2.97;;
47161;SDS011;32921;53.256;8.198;2023-05-19T09:37:15;10.70;;;3.03;;
47161;SDS011;32921;53.256;8.198;2023-05-19T09:39:40;9.80;;;2.97;;
47161;SDS011;32921;53.256;8.198;2023-05-19T09:42:13;7.63;;;2.33;;
47161;SDS011;32921;53.256;8.198;2023-05-19T09:44:38;9.13;;;2.80;;
47161;SDS011;32921;53.256;8.198;2023-05-19T09:47:06;8.52;;;2.47;;
47161;SDS011;32921;53.256;8.198;2023-05-19T09:49:33;10.02;;;2.35;;
47161;SDS011;32921;53.256;8.198;2023-05-19T09:52:00;9.52;;;2.80;;
47161;SDS011;32921;53.256;8.198;2023-05-19T09:54:27;9.98;;;2.40;;
47161;SDS011;32921;53.256;8.198;2023-05-19T09:59:25;8.13;;;2.65;;
47161;SDS011;32921;53.256;8.198;2023-05-19T10:01:56;7.10;;;1.98;;
47161;SDS011;32921;53.256;8.198;2023-05-19T10:04:23;5.83;;;2.10;;
47161;SDS011;32921;53.256;8.198;2023-05-19T10:06:50;6.88;;;2.50;;
47161;SDS011;32921;53.256;8.198;2023-05-19T10:09:27;7.53;;;2.08;;
47161;SDS011;32921;53.256;8.198;2023-05-19T10:11:54;8.85;;;1.80;;
47161;SDS011;32921;53.256;8.198;2023-05-19T10:14:24;7.25;;;2.15;;
47161;SDS011;32921;53.256;8.198;2023-05-19T10:16:52;7.43;;;2.38;;
47161;SDS011;32921;53.256;8.198;2023-05-19T10:19:19;8.38;;;2.30;;
47161;SDS011;32921;53.256;8.198;2023-05-19T10:21:49;9.77;;;2.20;;
47161;SDS011;32921;53.256;8.198;2023-05-19T10:24:16;9.15;;;2.70;;
47161;SDS011;32921;53.256;8.198;2023-05-19T10:26:43;9.05;;;2.50;;
47161;SDS011;32921;53.256;8.198;2023-05-19T10:29:36;9.00;;;2.45;;
47161;SDS011;32921;53.256;8.198;2023-05-19T10:32:05;7.43;;;2.03;;
47161;SDS011;32921;53.256;8.198;2023-05-19T10:34:46;8.70;;;2.15;;
47161;SDS011;32921;53.256;8.198;2023-05-19T10:37:26;7.45;;;1.92;;
47161;SDS011;32921;53.256;8.198;2023-05-19T10:40:08;5.75;;;2.20;;
47161;SDS011;32921;53.256;8.198;2023-05-19T10:42:45;5.55;;;1.90;;
47161;SDS011;32921;53.256;8.198;2023-05-19T10:45:39;7.78;;;2.67;;
47161;SDS011;32921;53.256;8.198;2023-05-19T10:48:12;7.47;;;2.10;;
47161;SDS011;32921;53.256;8.198;2023-05-19T10:50:39;8.25;;;2.15;;
47161;SDS011;32921;53.256;8.198;2023-05-19T10:53:12;3.78;;;1.45;;
47161;SDS011;32921;53.256;8.198;2023-05-19T10:55:52;5.75;;;1.80;;
47161;SDS011;32921;53.256;8.198;2023-05-19T11:01:21;10.50;;;2.05;;
47161;SDS011;32921;53.256;8.198;2023-05-19T11:03:49;7.22;;;2.13;;
47161;SDS011;32921;53.256;8.198;2023-05-19T11:09:01;12.82;;;1.98;;
47161;SDS011;32921;53.256;8.198;2023-05-19T11:11:44;8.13;;;2.00;;
47161;SDS011;32921;53.256;8.198;2023-05-19T11:14:20;5.97;;;1.70;;
47161;SDS011;32921;53.256;8.198;2023-05-19T11:16:51;5.80;;;1.70;;
47161;SDS011;32921;53.256;8.198;2023-05-19T11:19:26;8.77;;;2.00;;
47161;SDS011;32921;53.256;8.198;2023-05-19T11:21:53;6.53;;;1.70;;
47161;SDS011;32921;53.256;8.198;2023-05-19T11:24:32;8.35;;;1.85;;
47161;SDS011;32921;53.256;8.198;2023-05-19T11:29:50;8.48;;;1.88;;
47161;SDS011;32921;53.256;8.198;2023-05-19T11:32:16;7.15;;;1.60;;
47161;SDS011;32921;53.256;8.198;2023-05-19T11:34:43;7.47;;;1.63;;
47161;SDS011;32921;53.256;8.198;2023-05-19T11:37:10;5.93;;;1.77;;
47161;SDS011;32921;53.256;8.198;2023-05-19T11:39:36;9.88;;;2.28;;
47161;SDS011;32921;53.256;8.198;2023-05-19T11:42:03;9.48;;;2.15;;
47161;SDS011;32921;53.256;8.198;2023-05-19T11:44:28;8.30;;;1.67;;
47161;SDS011;32921;53.256;8.198;2023-05-19T11:46:54;7.47;;;1.70;;
47161;SDS011;32921;53.256;8.198;2023-05-19T11:49:20;6.43;;;1.67;;
47161;SDS011;32921;53.256;8.198;2023-05-19T11:51:45;10.02;;;1.58;;
47161;SDS011;32921;53.256;8.198;2023-05-19T11:54:11;5.93;;;1.50;;
47161;SDS011;32921;53.256;8.198;2023-05-19T11:56:40;6.68;;;1.52;;
47161;SDS011;32921;53.256;8.198;2023-05-19T11:59:07;9.85;;;1.60;;
47161;SDS011;32921;53.256;8.198;2023-05-19T12:01:33;5.90;;;1.70;;
47161;SDS011;32921;53.256;8.198;2023-05-19T12:04:00;9.40;;;2.58;;
47161;SDS011;32921;53.256;8.198;2023-05-19T12:06:29;9.10;;;1.67;;
47161;SDS011;32921;53.256;8.198;2023-05-19T12:08:55;7.38;;;1.83;;
47161;SDS011;32921;53.256;8.198;2023-05-19T12:11:21;7.68;;;1.77;;
47161;SDS011;32921;53.256;8.198;2023-05-19T12:13:48;5.05;;;1.42;;
47161;SDS011;32921;53.256;8.198;2023-05-19T12:16:14;6.10;;;1.58;;
47161;SDS011;32921;53.256;8.198;2023-05-19T12:18:43;7.10;;;1.75;;
47161;SDS011;32921;53.256;8.198;2023-05-19T12:21:09;7.90;;;1.98;;
47161;SDS011;32921;53.256;8.198;2023-05-19T12:23:36;6.03;;;1.60;;
47161;SDS011;32921;53.256;8.198;2023-05-19T12:26:02;4.60;;;1.52;;
47161;SDS011;32921;53.256;8.198;2023-05-19T12:28:28;4.15;;;1.45;;
47161;SDS011;32921;53.256;8.198;2023-05-19T12:30:55;6.93;;;1.85;;
47161;SDS011;32921;53.256;8.198;2023-05-19T12:33:22;6.10;;;1.70;;
47161;SDS011;32921;53.256;8.198;2023-05-19T12:35:48;7.57;;;1.55;;
47161;SDS011;32921;53.256;8.198;2023-05-19T12:38:14;10.43;;;1.50;;
47161;SDS011;32921;53.256;8.198;2023-05-19T12:40:41;6.03;;;1.30;;
47161;SDS011;32921;53.256;8.198;2023-05-19T12:43:07;7.07;;;1.88;;
47161;SDS011;32921;53.256;8.198;2023-05-19T12:45:36;7.68;;;1.65;;
47161;SDS011;32921;53.256;8.198;2023-05-19T12:48:04;12.43;;;2.05;;
47161;SDS011;32921;53.256;8.198;2023-05-19T12:53:00;8.30;;;1.75;;
47161;SDS011;32921;53.256;8.198;2023-05-19T12:55:26;10.95;;;1.85;;
47161;SDS011;32921;53.256;8.198;2023-05-19T12:57:52;7.30;;;2.00;;
47161;SDS011;32921;53.256;8.198;2023-05-19T13:00:20;5.85;;;1.58;;
47161;SDS011;32921;53.256;8.198;2023-05-19T13:05:37;7.25;;;1.90;;
47161;SDS011;32921;53.256;8.198;2023-05-19T13:08:05;7.20;;;1.50;;
47161;SDS011;32921;53.256;8.198;2023-05-19T13:10:32;6.57;;;1.88;;
47161;SDS011;32921;53.256;8.198;2023-05-19T13:12:59;9.25;;;1.67;;
47161;SDS011;32921;53.256;8.198;2023-05-19T13:15:26;5.13;;;1.33;;
47161;SDS011;32921;53.256;8.198;2023-05-19T13:17:58;5.47;;;1.30;;
47161;SDS011;32921;53.256;8.198;2023-05-19T13:20:25;4.00;;;0.85;;
47161;SDS011;32921;53.256;8.198;2023-05-19T13:22:50;5.32;;;1.05;;
47161;SDS011;32921;53.256;8.198;2023-05-19T13:25:16;5.78;;;1.52;;
47161;SDS011;32921;53.256;8.198;2023-05-19T13:27:46;6.40;;;1.30;;
47161;SDS011;32921;53.256;8.198;2023-05-19T13:30:12;5.57;;;1.55;;
47161;SDS011;32921;53.256;8.198;2023-05-19T13:32:39;6.55;;;1.40;;
47161;SDS011;32921;53.256;8.198;2023-05-19T13:35:05;4.97;;;1.42;;
47161;SDS011;32921;53.256;8.198;2023-05-19T13:37:31;5.00;;;1.48;;
47161;SDS011;32921;53.256;8.198;2023-05-19T13:39:57;6.22;;;1.40;;
47161;SDS011;32921;53.256;8.198;2023-05-19T13:42:22;5.60;;;1.60;;
47161;SDS011;32921;53.256;8.198;2023-05-19T13:44:48;6.30;;;1.50;;
47161;SDS011;32921;53.256;8.198;2023-05-19T13:47:18;5.68;;;1.30;;
47161;SDS011;32921;53.256;8.198;2023-05-19T13:49:43;4.35;;;1.33;;
47161;SDS011;32921;53.256;8.198;2023-05-19T13:52:09;5.22;;;1.40;;
47161;SDS011;32921;53.256;8.198;2023-05-19T13:54:35;7.82;;;1.63;;
47161;SDS011;32921;53.256;8.198;2023-05-19T13:57:01;6.57;;;1.65;;
47161;SDS011;32921;53.256;8.198;2023-05-19T13:59:26;4.55;;;1.42;;
47161;SDS011;32921;53.256;8.198;2023-05-19T14:01:52;6.55;;;1.50;;
47161;SDS011;32921;53.256;8.198;2023-05-19T14:04:18;5.55;;;1.50;;
47161;SDS011;32921;53.256;8.198;2023-05-19T14:06:44;8.43;;;1.63;;
47161;SDS011;32921;53.256;8.198;2023-05-19T14:09:10;8.43;;;1.88;;
47161;SDS011;32921;53.256;8.198;2023-05-19T14:11:36;7.32;;;1.70;;
47161;SDS011;32921;53.256;8.198;2023-05-19T14:14:01;4.70;;;1.25;;
47161;SDS011;32921;53.256;8.198;2023-05-19T14:16:27;6.57;;;1.77;;
47161;SDS011;32921;53.256;8.198;2023-05-19T14:18:53;6.47;;;1.90;;
47161;SDS011;32921;53.256;8.198;2023-05-19T14:21:18;7.22;;;1.40;;
47161;SDS011;32921;53.256;8.198;2023-05-19T14:23:44;8.95;;;1.35;;
47161;SDS011;32921;53.256;8.198;2023-05-19T14:26:10;7.50;;;1.80;;
47161;SDS011;32921;53.256;8.198;2023-05-19T14:28:36;5.20;;;1.48;;
47161;SDS011;32921;53.256;8.198;2023-05-19T14:31:01;7.72;;;1.88;;
47161;SDS011;32921;53.256;8.198;2023-05-19T14:33:27;3.47;;;1.13;;
47161;SDS011;32921;53.256;8.198;2023-05-19T14:35:53;6.43;;;1.40;;
47161;SDS011;32921;53.256;8.198;2023-05-19T14:38:19;4.82;;;1.40;;
47161;SDS011;32921;53.256;8.198;2023-05-19T14:40:44;5.57;;;1.40;;
47161;SDS011;32921;53.256;8.198;2023-05-19T14:43:12;6.03;;;1.17;;
47161;SDS011;32921;53.256;8.198;2023-05-19T14:45:37;6.97;;;1.58;;
47161;SDS011;32921;53.256;8.198;2023-05-19T14:48:03;6.30;;;1.63;;
47161;SDS011;32921;53.256;8.198;2023-05-19T14:50:29;6.47;;;1.38;;
47161;SDS011;32921;53.256;8.198;2023-05-19T14:52:55;6.43;;;1.55;;
47161;SDS011;32921;53.256;8.198;2023-05-19T14:55:21;6.60;;;1.60;;
47161;SDS011;32921;53.256;8.198;2023-05-19T14:57:47;6.38;;;1.70;;
47161;SDS011;32921;53.256;8.198;2023-05-19T15:00:14;5.72;;;1.40;;
47161;SDS011;32921;53.256;8.198;2023-05-19T15:02:40;7.15;;;2.10;;
47161;SDS011;32921;53.256;8.198;2023-05-19T15:05:05;8.05;;;1.85;;
47161;SDS011;32921;53.256;8.198;2023-05-19T15:07:31;12.23;;;2.30;;
47161;SDS011;32921;53.256;8.198;2023-05-19T15:09:57;5.43;;;1.60;;